sensor_id;sensor_type;location;lat;lon;timestamp;P1;durP1;ratioP1;P2;durP2;ratioP2
75787;SDS011;64406;50.024;14.492;2023-07-31T00:00:31;4.15;;;1.45;;
75787;SDS011;64406;50.024;14.492;2023-07-31T00:03:17;3.88;;;1.38;;
75787;SDS011;64406;50.024;14.492;2023-07-31T00:05:42;8.43;;;1.67;;
75787;SDS011;64406;50.024;14.492;2023-07-31T00:08:08;3.10;;;1.58;;
75787;SDS011;64406;50.024;14.492;2023-07-31T00:10:34;6.13;;;1.95;;
75787;SDS011;64406;50.024;14.492;2023-07-31T00:13:00;1.77;;;1.20;;
75787;SDS011;64406;50.024;14.492;2023-07-31T00:15:25;5.53;;;1.83;;
75787;SDS011;64406;50.024;14.492;2023-07-31T00:17:51;3.63;;;2.15;;
75787;SDS011;64406;50.024;14.492;2023-07-31T00:20:17;4.95;;;1.92;;
75787;SDS011;64406;50.024;14.492;2023-07-31T00:22:42;4.97;;;1.83;;
75787;SDS011;64406;50.024;14.492;2023-07-31T00:25:08;4.38;;;2.15;;
75787;SDS011;64406;50.024;14.492;2023-07-31T00:27:33;5.25;;;1.95;;
75787;SDS011;64406;50.024;14.492;2023-07-31T00:29:59;1.85;;;1.60;;
75787;SDS011;64406;50.024;14.492;2023-07-31T00:32:25;2.78;;;1.73;;
75787;SDS011;64406;50.024;14.492;2023-07-31T00:34:50;5.63;;;2.08;;
75787;SDS011;64406;50.024;14.492;2023-07-31T00:37:16;4.07;;;2.05;;
75787;SDS011;64406;50.024;14.492;2023-07-31T00:39:41;4.68;;;2.00;;
75787;SDS011;64406;50.024;14.492;2023-07-31T00:42:07;3.10;;;1.80;;
75787;SDS011;64406;50.024;14.492;2023-07-31T00:44:33;4.28;;;1.85;;
75787;SDS011;64406;50.024;14.492;2023-07-31T00:46:59;2.97;;;1.65;;
75787;SDS011;64406;50.024;14.492;2023-07-31T00:49:25;4.45;;;2.20;;
75787;SDS011;64406;50.024;14.492;2023-07-31T00:51:51;5.68;;;1.75;;
75787;SDS011;64406;50.024;14.492;2023-07-31T00:54:18;3.25;;;1.77;;
75787;SDS011;64406;50.024;14.492;2023-07-31T00:56:44;6.03;;;2.10;;
75787;SDS011;64406;50.024;14.492;2023-07-31T00:59:13;4.22;;;2.22;;
75787;SDS011;64406;50.024;14.492;2023-07-31T01:01:39;3.83;;;2.00;;
75787;SDS011;64406;50.024;14.492;2023-07-31T01:04:05;2.50;;;1.92;;
75787;SDS011;64406;50.024;14.492;2023-07-31T01:06:40;4.53;;;2.15;;
75787;SDS011;64406;50.024;14.492;2023-07-31T01:12:36;3.10;;;1.50;;
75787;SDS011;64406;50.024;14.492;2023-07-31T01:15:06;2.90;;;1.80;;
75787;SDS011;64406;50.024;14.492;2023-07-31T01:17:39;3.95;;;1.70;;
75787;SDS011;64406;50.024;14.492;2023-07-31T01:20:16;4.53;;;2.00;;
75787;SDS011;64406;50.024;14.492;2023-07-31T01:28:55;4.28;;;1.90;;
75787;SDS011;64406;50.024;14.492;2023-07-31T01:31:57;5.25;;;1.92;;
75787;SDS011;64406;50.024;14.492;2023-07-31T01:34:25;4.82;;;1.90;;
75787;SDS011;64406;50.024;14.492;2023-07-31T01:36:52;3.38;;;1.80;;
75787;SDS011;64406;50.024;14.492;2023-07-31T01:39:19;11.15;;;2.70;;
75787;SDS011;64406;50.024;14.492;2023-07-31T01:41:45;3.92;;;1.60;;
75787;SDS011;64406;50.024;14.492;2023-07-31T01:44:11;3.30;;;1.73;;
75787;SDS011;64406;50.024;14.492;2023-07-31T01:46:36;2.80;;;2.03;;
75787;SDS011;64406;50.024;14.492;2023-07-31T01:49:02;3.95;;;1.58;;
75787;SDS011;64406;50.024;14.492;2023-07-31T01:51:28;2.08;;;1.80;;
75787;SDS011;64406;50.024;14.492;2023-07-31T01:53:53;4.00;;;1.60;;
75787;SDS011;64406;50.024;14.492;2023-07-31T01:56:19;3.30;;;1.92;;
75787;SDS011;64406;50.024;14.492;2023-07-31T01:58:45;3.15;;;1.67;;
75787;SDS011;64406;50.024;14.492;2023-07-31T02:01:10;6.25;;;1.73;;
75787;SDS011;64406;50.024;14.492;2023-07-31T02:03:36;4.95;;;1.73;;
75787;SDS011;64406;50.024;14.492;2023-07-31T02:06:01;4.25;;;1.65;;
75787;SDS011;64406;50.024;14.492;2023-07-31T02:08:27;6.90;;;1.73;;
75787;SDS011;64406;50.024;14.492;2023-07-31T02:10:53;5.80;;;2.50;;
75787;SDS011;64406;50.024;14.492;2023-07-31T02:13:19;2.78;;;1.80;;
75787;SDS011;64406;50.024;14.492;2023-07-31T02:15:45;6.15;;;1.90;;
75787;SDS011;64406;50.024;14.492;2023-07-31T02:18:10;3.92;;;1.80;;
75787;SDS011;64406;50.024;14.492;2023-07-31T02:20:36;3.45;;;1.38;;
75787;SDS011;64406;50.024;14.492;2023-07-31T02:23:02;4.00;;;1.83;;
75787;SDS011;64406;50.024;14.492;2023-07-31T02:25:27;4.20;;;1.70;;
75787;SDS011;64406;50.024;14.492;2023-07-31T02:27:53;2.88;;;1.70;;
75787;SDS011;64406;50.024;14.492;2023-07-31T02:30:18;3.17;;;1.50;;
75787;SDS011;64406;50.024;14.492;2023-07-31T02:32:44;4.65;;;2.25;;
75787;SDS011;64406;50.024;14.492;2023-07-31T02:35:09;4.00;;;1.60;;
75787;SDS011;64406;50.024;14.492;2023-07-31T02:37:36;2.03;;;1.30;;
75787;SDS011;64406;50.024;14.492;2023-07-31T02:40:03;5.32;;;1.40;;
75787;SDS011;64406;50.024;14.492;2023-07-31T02:42:29;5.72;;;1.73;;
75787;SDS011;64406;50.024;14.492;2023-07-31T02:44:54;3.60;;;1.65;;
75787;SDS011;64406;50.024;14.492;2023-07-31T02:47:21;4.20;;;2.35;;
75787;SDS011;64406;50.024;14.492;2023-07-31T02:49:47;2.22;;;1.63;;
75787;SDS011;64406;50.024;14.492;2023-07-31T02:52:13;3.80;;;1.92;;
75787;SDS011;64406;50.024;14.492;2023-07-31T02:54:39;2.05;;;1.58;;
75787;SDS011;64406;50.024;14.492;2023-07-31T02:57:04;4.72;;;1.63;;
75787;SDS011;64406;50.024;14.492;2023-07-31T02:59:30;5.03;;;1.92;;
75787;SDS011;64406;50.024;14.492;2023-07-31T03:01:56;3.70;;;1.55;;
75787;SDS011;64406;50.024;14.492;2023-07-31T03:04:22;3.15;;;1.70;;
75787;SDS011;64406;50.024;14.492;2023-07-31T03:06:48;1.80;;;1.42;;
75787;SDS011;64406;50.024;14.492;2023-07-31T03:09:13;6.10;;;1.88;;
75787;SDS011;64406;50.024;14.492;2023-07-31T03:11:39;3.13;;;1.63;;
75787;SDS011;64406;50.024;14.492;2023-07-31T03:14:04;4.25;;;1.70;;
75787;SDS011;64406;50.024;14.492;2023-07-31T03:16:30;3.38;;;1.63;;
75787;SDS011;64406;50.024;14.492;2023-07-31T03:18:55;4.10;;;1.70;;
75787;SDS011;64406;50.024;14.492;2023-07-31T03:21:21;7.18;;;2.00;;
75787;SDS011;64406;50.024;14.492;2023-07-31T03:23:46;4.97;;;1.50;;
75787;SDS011;64406;50.024;14.492;2023-07-31T03:26:12;3.08;;;1.70;;
75787;SDS011;64406;50.024;14.492;2023-07-31T03:28:38;5.70;;;1.80;;
75787;SDS011;64406;50.024;14.492;2023-07-31T03:31:04;7.15;;;1.85;;
75787;SDS011;64406;50.024;14.492;2023-07-31T03:33:29;5.50;;;1.65;;
75787;SDS011;64406;50.024;14.492;2023-07-31T03:35:55;2.15;;;1.25;;
75787;SDS011;64406;50.024;14.492;2023-07-31T03:38:21;3.90;;;1.80;;
75787;SDS011;64406;50.024;14.492;2023-07-31T03:40:46;4.53;;;1.48;;
75787;SDS011;64406;50.024;14.492;2023-07-31T03:43:12;5.78;;;1.63;;
75787;SDS011;64406;50.024;14.492;2023-07-31T03:45:38;2.65;;;1.58;;
75787;SDS011;64406;50.024;14.492;2023-07-31T03:48:03;3.42;;;1.85;;
75787;SDS011;64406;50.024;14.492;2023-07-31T03:50:29;3.20;;;1.45;;
75787;SDS011;64406;50.024;14.492;2023-07-31T03:52:55;3.85;;;1.45;;
75787;SDS011;64406;50.024;14.492;2023-07-31T03:55:21;2.90;;;1.40;;
75787;SDS011;64406;50.024;14.492;2023-07-31T03:57:47;4.22;;;1.60;;
75787;SDS011;64406;50.024;14.492;2023-07-31T04:00:13;3.70;;;1.80;;
75787;SDS011;64406;50.024;14.492;2023-07-31T04:02:39;2.67;;;1.52;;
75787;SDS011;64406;50.024;14.492;2023-07-31T04:05:04;3.65;;;1.58;;
75787;SDS011;64406;50.024;14.492;2023-07-31T04:07:30;2.72;;;1.67;;
75787;SDS011;64406;50.024;14.492;2023-07-31T04:09:56;3.60;;;1.75;;
75787;SDS011;64406;50.024;14.492;2023-07-31T04:12:22;7.45;;;1.70;;
75787;SDS011;64406;50.024;14.492;2023-07-31T04:14:49;2.85;;;1.60;;
75787;SDS011;64406;50.024;14.492;2023-07-31T04:17:15;5.40;;;1.45;;
75787;SDS011;64406;50.024;14.492;2023-07-31T04:19:41;5.03;;;1.75;;
75787;SDS011;64406;50.024;14.492;2023-07-31T04:22:06;2.97;;;1.92;;
75787;SDS011;64406;50.024;14.492;2023-07-31T04:24:32;4.28;;;1.48;;
75787;SDS011;64406;50.024;14.492;2023-07-31T04:26:57;8.18;;;2.20;;
75787;SDS011;64406;50.024;14.492;2023-07-31T04:29:23;4.20;;;1.90;;
75787;SDS011;64406;50.024;14.492;2023-07-31T04:31:49;3.67;;;1.88;;
75787;SDS011;64406;50.024;14.492;2023-07-31T04:34:14;3.90;;;1.63;;
75787;SDS011;64406;50.024;14.492;2023-07-31T04:36:40;5.10;;;1.50;;
75787;SDS011;64406;50.024;14.492;2023-07-31T04:39:06;3.60;;;1.63;;
75787;SDS011;64406;50.024;14.492;2023-07-31T04:41:31;6.88;;;1.75;;
75787;SDS011;64406;50.024;14.492;2023-07-31T04:43:57;2.53;;;1.38;;
75787;SDS011;64406;50.024;14.492;2023-07-31T04:46:22;2.47;;;1.98;;
75787;SDS011;64406;50.024;14.492;2023-07-31T04:48:48;2.97;;;1.40;;
75787;SDS011;64406;50.024;14.492;2023-07-31T04:51:13;3.40;;;1.70;;
75787;SDS011;64406;50.024;14.492;2023-07-31T04:53:39;3.88;;;1.75;;
75787;SDS011;64406;50.024;14.492;2023-07-31T04:56:05;3.08;;;1.67;;
75787;SDS011;64406;50.024;14.492;2023-07-31T04:58:30;3.92;;;1.42;;
75787;SDS011;64406;50.024;14.492;2023-07-31T05:00:56;3.53;;;1.80;;
75787;SDS011;64406;50.024;14.492;2023-07-31T05:03:22;5.13;;;2.08;;
75787;SDS011;64406;50.024;14.492;2023-07-31T05:05:47;3.05;;;1.60;;
75787;SDS011;64406;50.024;14.492;2023-07-31T05:08:13;3.42;;;1.50;;
75787;SDS011;64406;50.024;14.492;2023-07-31T05:10:38;4.78;;;1.95;;
75787;SDS011;64406;50.024;14.492;2023-07-31T05:13:04;3.00;;;1.67;;
75787;SDS011;64406;50.024;14.492;2023-07-31T05:15:30;4.40;;;1.80;;
75787;SDS011;64406;50.024;14.492;2023-07-31T05:17:56;6.25;;;2.08;;
75787;SDS011;64406;50.024;14.492;2023-07-31T05:20:21;4.38;;;1.73;;
75787;SDS011;64406;50.024;14.492;2023-07-31T05:22:47;5.80;;;2.63;;
75787;SDS011;64406;50.024;14.492;2023-07-31T05:25:13;4.75;;;2.53;;
75787;SDS011;64406;50.024;14.492;2023-07-31T05:27:38;5.65;;;2.67;;
75787;SDS011;64406;50.024;14.492;2023-07-31T05:30:04;3.53;;;2.22;;
75787;SDS011;64406;50.024;14.492;2023-07-31T05:32:31;7.53;;;2.20;;
75787;SDS011;64406;50.024;14.492;2023-07-31T05:34:56;3.38;;;2.00;;
75787;SDS011;64406;50.024;14.492;2023-07-31T05:37:22;6.13;;;2.70;;
75787;SDS011;64406;50.024;14.492;2023-07-31T05:39:48;11.00;;;4.22;;
75787;SDS011;64406;50.024;14.492;2023-07-31T05:42:14;13.43;;;6.88;;
75787;SDS011;64406;50.024;14.492;2023-07-31T05:44:40;11.63;;;6.22;;
75787;SDS011;64406;50.024;14.492;2023-07-31T05:47:05;6.97;;;3.67;;
75787;SDS011;64406;50.024;14.492;2023-07-31T05:49:31;3.92;;;2.50;;
75787;SDS011;64406;50.024;14.492;2023-07-31T05:51:56;6.55;;;2.05;;
75787;SDS011;64406;50.024;14.492;2023-07-31T05:54:22;3.72;;;1.80;;
75787;SDS011;64406;50.024;14.492;2023-07-31T05:56:48;3.83;;;1.92;;
75787;SDS011;64406;50.024;14.492;2023-07-31T05:59:13;7.07;;;3.00;;
75787;SDS011;64406;50.024;14.492;2023-07-31T06:01:39;4.18;;;1.80;;
75787;SDS011;64406;50.024;14.492;2023-07-31T06:04:05;2.90;;;1.65;;
75787;SDS011;64406;50.024;14.492;2023-07-31T06:06:30;5.28;;;1.45;;
75787;SDS011;64406;50.024;14.492;2023-07-31T06:08:56;4.82;;;2.33;;
75787;SDS011;64406;50.024;14.492;2023-07-31T06:11:22;4.28;;;2.08;;
75787;SDS011;64406;50.024;14.492;2023-07-31T06:13:48;4.78;;;1.70;;
75787;SDS011;64406;50.024;14.492;2023-07-31T06:16:14;4.95;;;2.05;;
75787;SDS011;64406;50.024;14.492;2023-07-31T06:18:40;4.00;;;1.80;;
75787;SDS011;64406;50.024;14.492;2023-07-31T06:21:07;2.42;;;1.45;;
75787;SDS011;64406;50.024;14.492;2023-07-31T06:23:33;2.20;;;1.48;;
75787;SDS011;64406;50.024;14.492;2023-07-31T06:25:59;6.28;;;2.00;;
75787;SDS011;64406;50.024;14.492;2023-07-31T06:28:28;7.20;;;2.00;;
75787;SDS011;64406;50.024;14.492;2023-07-31T06:30:55;1.85;;;1.35;;
75787;SDS011;64406;50.024;14.492;2023-07-31T06:33:20;3.88;;;2.08;;
75787;SDS011;64406;50.024;14.492;2023-07-31T06:35:46;3.38;;;1.67;;
75787;SDS011;64406;50.024;14.492;2023-07-31T06:38:12;4.53;;;1.80;;
75787;SDS011;64406;50.024;14.492;2023-07-31T06:40:37;3.17;;;2.00;;
75787;SDS011;64406;50.024;14.492;2023-07-31T06:43:03;8.60;;;1.85;;
75787;SDS011;64406;50.024;14.492;2023-07-31T06:45:33;3.20;;;1.45;;
75787;SDS011;64406;50.024;14.492;2023-07-31T06:48:00;4.28;;;1.60;;
75787;SDS011;64406;50.024;14.492;2023-07-31T06:50:28;3.05;;;1.63;;
75787;SDS011;64406;50.024;14.492;2023-07-31T06:52:53;6.30;;;1.52;;
75787;SDS011;64406;50.024;14.492;2023-07-31T06:55:20;3.47;;;1.70;;
75787;SDS011;64406;50.024;14.492;2023-07-31T06:57:49;6.55;;;1.70;;
75787;SDS011;64406;50.024;14.492;2023-07-31T07:00:17;4.13;;;1.67;;
75787;SDS011;64406;50.024;14.492;2023-07-31T07:02:43;7.45;;;1.80;;
75787;SDS011;64406;50.024;14.492;2023-07-31T07:05:09;4.05;;;1.30;;
75787;SDS011;64406;50.024;14.492;2023-07-31T07:07:35;4.03;;;1.80;;
75787;SDS011;64406;50.024;14.492;2023-07-31T07:10:01;1.88;;;1.23;;
75787;SDS011;64406;50.024;14.492;2023-07-31T07:12:29;3.92;;;1.77;;
75787;SDS011;64406;50.024;14.492;2023-07-31T07:14:55;3.97;;;1.50;;
75787;SDS011;64406;50.024;14.492;2023-07-31T07:17:22;4.40;;;1.48;;
75787;SDS011;64406;50.024;14.492;2023-07-31T07:19:48;3.53;;;1.35;;
75787;SDS011;64406;50.024;14.492;2023-07-31T07:22:14;3.63;;;1.90;;
75787;SDS011;64406;50.024;14.492;2023-07-31T07:24:40;5.70;;;1.77;;
75787;SDS011;64406;50.024;14.492;2023-07-31T07:27:05;3.72;;;1.90;;
75787;SDS011;64406;50.024;14.492;2023-07-31T07:29:31;5.18;;;1.70;;
75787;SDS011;64406;50.024;14.492;2023-07-31T07:31:58;5.40;;;1.50;;
75787;SDS011;64406;50.024;14.492;2023-07-31T07:34:27;4.60;;;1.77;;
75787;SDS011;64406;50.024;14.492;2023-07-31T07:36:53;4.80;;;1.77;;
75787;SDS011;64406;50.024;14.492;2023-07-31T07:39:19;4.22;;;1.73;;
75787;SDS011;64406;50.024;14.492;2023-07-31T07:41:45;5.15;;;1.85;;
75787;SDS011;64406;50.024;14.492;2023-07-31T07:44:12;4.13;;;1.70;;
75787;SDS011;64406;50.024;14.492;2023-07-31T07:46:38;5.47;;;1.63;;
75787;SDS011;64406;50.024;14.492;2023-07-31T07:49:04;4.40;;;1.70;;
75787;SDS011;64406;50.024;14.492;2023-07-31T07:51:30;3.58;;;1.67;;
75787;SDS011;64406;50.024;14.492;2023-07-31T07:53:59;5.30;;;2.20;;
75787;SDS011;64406;50.024;14.492;2023-07-31T07:56:25;4.80;;;1.75;;
75787;SDS011;64406;50.024;14.492;2023-07-31T07:58:52;4.40;;;1.80;;
75787;SDS011;64406;50.024;14.492;2023-07-31T08:01:19;4.55;;;1.98;;
75787;SDS011;64406;50.024;14.492;2023-07-31T08:03:45;4.82;;;1.77;;
75787;SDS011;64406;50.024;14.492;2023-07-31T08:06:11;5.15;;;2.10;;
75787;SDS011;64406;50.024;14.492;2023-07-31T08:08:37;6.80;;;2.17;;
75787;SDS011;64406;50.024;14.492;2023-07-31T08:11:03;5.00;;;1.80;;
75787;SDS011;64406;50.024;14.492;2023-07-31T08:13:30;5.93;;;2.20;;
75787;SDS011;64406;50.024;14.492;2023-07-31T08:15:55;4.47;;;1.90;;
75787;SDS011;64406;50.024;14.492;2023-07-31T08:18:21;2.55;;;1.40;;
75787;SDS011;64406;50.024;14.492;2023-07-31T08:20:47;3.38;;;1.60;;
75787;SDS011;64406;50.024;14.492;2023-07-31T08:23:13;4.22;;;1.50;;
75787;SDS011;64406;50.024;14.492;2023-07-31T08:25:38;4.15;;;1.90;;
75787;SDS011;64406;50.024;14.492;2023-07-31T08:28:05;4.43;;;1.58;;
75787;SDS011;64406;50.024;14.492;2023-07-31T08:30:31;12.05;;;1.90;;
75787;SDS011;64406;50.024;14.492;2023-07-31T08:32:58;2.58;;;1.40;;
75787;SDS011;64406;50.024;14.492;2023-07-31T08:35:25;9.65;;;1.95;;
75787;SDS011;64406;50.024;14.492;2023-07-31T08:37:53;5.80;;;1.63;;
75787;SDS011;64406;50.024;14.492;2023-07-31T08:40:19;5.72;;;1.80;;
75787;SDS011;64406;50.024;14.492;2023-07-31T08:42:47;6.88;;;1.83;;
75787;SDS011;64406;50.024;14.492;2023-07-31T08:45:14;5.13;;;2.03;;
75787;SDS011;64406;50.024;14.492;2023-07-31T08:47:44;3.08;;;1.42;;
75787;SDS011;64406;50.024;14.492;2023-07-31T08:50:14;3.28;;;1.77;;
75787;SDS011;64406;50.024;14.492;2023-07-31T08:52:41;5.35;;;1.65;;
75787;SDS011;64406;50.024;14.492;2023-07-31T08:55:07;3.78;;;1.80;;
75787;SDS011;64406;50.024;14.492;2023-07-31T08:57:34;5.55;;;2.08;;
75787;SDS011;64406;50.024;14.492;2023-07-31T09:00:05;2.15;;;1.65;;
75787;SDS011;64406;50.024;14.492;2023-07-31T09:02:45;2.60;;;1.58;;
75787;SDS011;64406;50.024;14.492;2023-07-31T09:05:13;5.82;;;1.98;;
75787;SDS011;64406;50.024;14.492;2023-07-31T09:07:40;4.22;;;2.33;;
75787;SDS011;64406;50.024;14.492;2023-07-31T09:10:06;7.88;;;1.65;;
75787;SDS011;64406;50.024;14.492;2023-07-31T09:12:32;4.55;;;1.75;;
75787;SDS011;64406;50.024;14.492;2023-07-31T09:14:58;2.28;;;1.33;;
75787;SDS011;64406;50.024;14.492;2023-07-31T09:17:31;6.65;;;2.15;;
75787;SDS011;64406;50.024;14.492;2023-07-31T09:19:58;2.78;;;1.50;;
75787;SDS011;64406;50.024;14.492;2023-07-31T09:22:40;4.10;;;2.17;;
75787;SDS011;64406;50.024;14.492;2023-07-31T09:27:49;4.05;;;2.00;;
75787;SDS011;64406;50.024;14.492;2023-07-31T09:32:46;5.45;;;2.05;;
75787;SDS011;64406;50.024;14.492;2023-07-31T09:37:54;5.07;;;2.10;;
75787;SDS011;64406;50.024;14.492;2023-07-31T09:40:35;2.60;;;1.90;;
75787;SDS011;64406;50.024;14.492;2023-07-31T09:43:02;4.78;;;1.73;;
75787;SDS011;64406;50.024;14.492;2023-07-31T09:45:29;3.38;;;1.67;;
75787;SDS011;64406;50.024;14.492;2023-07-31T09:48:00;5.55;;;1.55;;
75787;SDS011;64406;50.024;14.492;2023-07-31T09:50:25;5.28;;;1.67;;
75787;SDS011;64406;50.024;14.492;2023-07-31T09:52:51;2.75;;;1.77;;
75787;SDS011;64406;50.024;14.492;2023-07-31T09:55:18;3.22;;;1.70;;
75787;SDS011;64406;50.024;14.492;2023-07-31T09:57:45;5.15;;;1.95;;
75787;SDS011;64406;50.024;14.492;2023-07-31T10:00:12;3.13;;;1.63;;
75787;SDS011;64406;50.024;14.492;2023-07-31T10:02:39;3.42;;;1.50;;
75787;SDS011;64406;50.024;14.492;2023-07-31T10:05:05;7.28;;;2.40;;
75787;SDS011;64406;50.024;14.492;2023-07-31T10:07:34;3.90;;;2.10;;
75787;SDS011;64406;50.024;14.492;2023-07-31T10:10:04;4.20;;;1.73;;
75787;SDS011;64406;50.024;14.492;2023-07-31T10:12:31;3.90;;;1.90;;
75787;SDS011;64406;50.024;14.492;2023-07-31T10:15:00;4.00;;;1.85;;
75787;SDS011;64406;50.024;14.492;2023-07-31T10:17:26;3.33;;;2.03;;
75787;SDS011;64406;50.024;14.492;2023-07-31T10:19:52;3.65;;;1.80;;
75787;SDS011;64406;50.024;14.492;2023-07-31T10:22:19;4.47;;;1.92;;
75787;SDS011;64406;50.024;14.492;2023-07-31T10:24:46;5.45;;;2.20;;
75787;SDS011;64406;50.024;14.492;2023-07-31T10:27:12;6.05;;;2.28;;
75787;SDS011;64406;50.024;14.492;2023-07-31T10:29:38;4.20;;;2.00;;
75787;SDS011;64406;50.024;14.492;2023-07-31T10:32:06;4.38;;;2.35;;
75787;SDS011;64406;50.024;14.492;2023-07-31T10:34:35;3.72;;;1.60;;
75787;SDS011;64406;50.024;14.492;2023-07-31T10:39:57;3.22;;;1.92;;
75787;SDS011;64406;50.024;14.492;2023-07-31T10:42:34;3.20;;;2.28;;
75787;SDS011;64406;50.024;14.492;2023-07-31T10:45:04;5.18;;;2.10;;
75787;SDS011;64406;50.024;14.492;2023-07-31T10:47:39;6.07;;;2.13;;
75787;SDS011;64406;50.024;14.492;2023-07-31T10:52:52;4.38;;;2.10;;
75787;SDS011;64406;50.024;14.492;2023-07-31T10:55:31;5.30;;;2.03;;
75787;SDS011;64406;50.024;14.492;2023-07-31T10:58:11;4.65;;;2.05;;
75787;SDS011;64406;50.024;14.492;2023-07-31T11:00:39;3.22;;;1.85;;
75787;SDS011;64406;50.024;14.492;2023-07-31T11:05:43;8.63;;;1.92;;
75787;SDS011;64406;50.024;14.492;2023-07-31T11:08:17;2.88;;;1.85;;
75787;SDS011;64406;50.024;14.492;2023-07-31T11:10:46;3.40;;;1.67;;
75787;SDS011;64406;50.024;14.492;2023-07-31T11:13:13;2.97;;;1.80;;
75787;SDS011;64406;50.024;14.492;2023-07-31T11:15:41;2.90;;;1.90;;
75787;SDS011;64406;50.024;14.492;2023-07-31T11:18:06;2.40;;;1.45;;
75787;SDS011;64406;50.024;14.492;2023-07-31T11:20:35;2.50;;;1.70;;
75787;SDS011;64406;50.024;14.492;2023-07-31T11:23:03;3.20;;;2.00;;
75787;SDS011;64406;50.024;14.492;2023-07-31T11:25:34;5.05;;;1.65;;
75787;SDS011;64406;50.024;14.492;2023-07-31T11:28:10;4.28;;;1.63;;
75787;SDS011;64406;50.024;14.492;2023-07-31T11:30:37;2.88;;;1.77;;
75787;SDS011;64406;50.024;14.492;2023-07-31T11:33:05;2.92;;;1.85;;
75787;SDS011;64406;50.024;14.492;2023-07-31T11:35:32;3.10;;;1.92;;
75787;SDS011;64406;50.024;14.492;2023-07-31T11:37:59;4.53;;;1.70;;
75787;SDS011;64406;50.024;14.492;2023-07-31T11:40:25;3.70;;;1.98;;
75787;SDS011;64406;50.024;14.492;2023-07-31T11:42:58;6.45;;;2.00;;
75787;SDS011;64406;50.024;14.492;2023-07-31T11:45:28;4.55;;;1.77;;
75787;SDS011;64406;50.024;14.492;2023-07-31T11:47:55;3.42;;;1.55;;
75787;SDS011;64406;50.024;14.492;2023-07-31T11:50:22;4.50;;;1.50;;
75787;SDS011;64406;50.024;14.492;2023-07-31T11:52:52;3.38;;;1.65;;
75787;SDS011;64406;50.024;14.492;2023-07-31T11:55:20;4.55;;;1.50;;
75787;SDS011;64406;50.024;14.492;2023-07-31T11:57:46;5.78;;;1.70;;
75787;SDS011;64406;50.024;14.492;2023-07-31T12:00:12;3.92;;;1.35;;
75787;SDS011;64406;50.024;14.492;2023-07-31T12:02:39;3.20;;;1.60;;
75787;SDS011;64406;50.024;14.492;2023-07-31T12:05:15;4.90;;;1.67;;
75787;SDS011;64406;50.024;14.492;2023-07-31T12:10:27;4.22;;;1.60;;
75787;SDS011;64406;50.024;14.492;2023-07-31T12:12:59;2.63;;;1.42;;
75787;SDS011;64406;50.024;14.492;2023-07-31T12:15:45;2.83;;;1.63;;
75787;SDS011;64406;50.024;14.492;2023-07-31T12:18:12;3.40;;;1.48;;
75787;SDS011;64406;50.024;14.492;2023-07-31T12:20:43;4.13;;;1.70;;
75787;SDS011;64406;50.024;14.492;2023-07-31T12:23:18;5.10;;;1.67;;
75787;SDS011;64406;50.024;14.492;2023-07-31T12:28:42;4.35;;;1.33;;
75787;SDS011;64406;50.024;14.492;2023-07-31T12:31:22;2.55;;;1.55;;
75787;SDS011;64406;50.024;14.492;2023-07-31T12:33:49;3.13;;;1.30;;
75787;SDS011;64406;50.024;14.492;2023-07-31T12:36:16;2.33;;;1.45;;
75787;SDS011;64406;50.024;14.492;2023-07-31T12:38:43;2.05;;;1.13;;
75787;SDS011;64406;50.024;14.492;2023-07-31T12:41:10;2.40;;;1.23;;
75787;SDS011;64406;50.024;14.492;2023-07-31T12:43:40;3.65;;;1.63;;
75787;SDS011;64406;50.024;14.492;2023-07-31T12:46:06;3.08;;;1.60;;
75787;SDS011;64406;50.024;14.492;2023-07-31T12:48:34;4.93;;;1.80;;
75787;SDS011;64406;50.024;14.492;2023-07-31T12:51:01;3.92;;;1.42;;
75787;SDS011;64406;50.024;14.492;2023-07-31T12:53:27;2.50;;;1.38;;
75787;SDS011;64406;50.024;14.492;2023-07-31T12:55:54;2.75;;;1.50;;
75787;SDS011;64406;50.024;14.492;2023-07-31T12:58:21;3.47;;;1.50;;
75787;SDS011;64406;50.024;14.492;2023-07-31T13:00:47;3.67;;;1.70;;
75787;SDS011;64406;50.024;14.492;2023-07-31T13:03:12;4.20;;;1.65;;
75787;SDS011;64406;50.024;14.492;2023-07-31T13:05:38;2.15;;;1.35;;
75787;SDS011;64406;50.024;14.492;2023-07-31T13:08:04;3.45;;;1.85;;
75787;SDS011;64406;50.024;14.492;2023-07-31T13:10:29;2.33;;;1.65;;
75787;SDS011;64406;50.024;14.492;2023-07-31T13:12:55;2.72;;;1.90;;
75787;SDS011;64406;50.024;14.492;2023-07-31T13:15:21;3.78;;;1.73;;
75787;SDS011;64406;50.024;14.492;2023-07-31T13:17:47;2.90;;;1.48;;
75787;SDS011;64406;50.024;14.492;2023-07-31T13:20:13;5.05;;;1.50;;
75787;SDS011;64406;50.024;14.492;2023-07-31T13:22:39;4.07;;;1.90;;
75787;SDS011;64406;50.024;14.492;2023-07-31T13:25:04;2.85;;;1.90;;
75787;SDS011;64406;50.024;14.492;2023-07-31T13:27:31;2.90;;;1.60;;
75787;SDS011;64406;50.024;14.492;2023-07-31T13:29:56;2.63;;;1.83;;
75787;SDS011;64406;50.024;14.492;2023-07-31T13:32:22;3.67;;;1.50;;
75787;SDS011;64406;50.024;14.492;2023-07-31T13:34:48;3.67;;;1.60;;
75787;SDS011;64406;50.024;14.492;2023-07-31T13:37:15;3.20;;;1.40;;
75787;SDS011;64406;50.024;14.492;2023-07-31T13:39:41;5.40;;;1.95;;
75787;SDS011;64406;50.024;14.492;2023-07-31T13:42:07;2.88;;;1.45;;
75787;SDS011;64406;50.024;14.492;2023-07-31T13:44:37;3.88;;;1.77;;
75787;SDS011;64406;50.024;14.492;2023-07-31T13:47:03;2.85;;;1.30;;
75787;SDS011;64406;50.024;14.492;2023-07-31T13:49:29;2.80;;;1.45;;
75787;SDS011;64406;50.024;14.492;2023-07-31T13:51:55;3.38;;;1.48;;
75787;SDS011;64406;50.024;14.492;2023-07-31T13:54:22;2.40;;;1.63;;
75787;SDS011;64406;50.024;14.492;2023-07-31T13:56:48;2.28;;;1.27;;
75787;SDS011;64406;50.024;14.492;2023-07-31T13:59:13;2.83;;;1.48;;
75787;SDS011;64406;50.024;14.492;2023-07-31T14:01:41;1.88;;;1.20;;
75787;SDS011;64406;50.024;14.492;2023-07-31T14:04:07;6.68;;;1.90;;
75787;SDS011;64406;50.024;14.492;2023-07-31T14:06:33;4.72;;;1.65;;
75787;SDS011;64406;50.024;14.492;2023-07-31T14:08:58;3.20;;;1.67;;
75787;SDS011;64406;50.024;14.492;2023-07-31T14:11:24;3.05;;;1.67;;
75787;SDS011;64406;50.024;14.492;2023-07-31T14:13:50;6.32;;;2.17;;
75787;SDS011;64406;50.024;14.492;2023-07-31T14:16:16;5.07;;;2.00;;
75787;SDS011;64406;50.024;14.492;2023-07-31T14:18:42;2.90;;;1.65;;
75787;SDS011;64406;50.024;14.492;2023-07-31T14:21:08;2.67;;;1.60;;
75787;SDS011;64406;50.024;14.492;2023-07-31T14:23:34;4.55;;;2.00;;
75787;SDS011;64406;50.024;14.492;2023-07-31T14:26:00;3.65;;;2.10;;
75787;SDS011;64406;50.024;14.492;2023-07-31T14:28:25;4.50;;;1.85;;
75787;SDS011;64406;50.024;14.492;2023-07-31T14:30:51;4.20;;;1.63;;
75787;SDS011;64406;50.024;14.492;2023-07-31T14:33:17;3.20;;;1.73;;
75787;SDS011;64406;50.024;14.492;2023-07-31T14:35:43;5.03;;;2.00;;
75787;SDS011;64406;50.024;14.492;2023-07-31T14:38:08;6.22;;;1.85;;
75787;SDS011;64406;50.024;14.492;2023-07-31T14:40:34;3.88;;;1.80;;
75787;SDS011;64406;50.024;14.492;2023-07-31T14:43:00;4.45;;;1.77;;
75787;SDS011;64406;50.024;14.492;2023-07-31T14:45:26;2.78;;;1.80;;
75787;SDS011;64406;50.024;14.492;2023-07-31T14:47:51;2.58;;;1.50;;
75787;SDS011;64406;50.024;14.492;2023-07-31T14:50:17;3.50;;;1.88;;
75787;SDS011;64406;50.024;14.492;2023-07-31T14:52:42;4.53;;;2.45;;
75787;SDS011;64406;50.024;14.492;2023-07-31T14:55:08;4.18;;;1.88;;
75787;SDS011;64406;50.024;14.492;2023-07-31T14:57:34;4.60;;;2.10;;
75787;SDS011;64406;50.024;14.492;2023-07-31T15:00:00;5.13;;;1.83;;
75787;SDS011;64406;50.024;14.492;2023-07-31T15:02:26;4.85;;;2.03;;